Time;durP1;ratioP1;P1;durP2;ratioP2;P2;SDS_P1;SDS_P2;PMS_P1;PMS_P2;Temp;Humidity;BMP_temperature;BMP_pressure;BME280_temperature;BME280_humidity;BME280_pressure;Samples;Min_cycle;Max_cycle;Signal;HPM_P1;HPM_P2
2021/12/17 00:01:09;;;;;;;0.60;0.60;;;8.50;99.00;;;;;;5071055;28;20234;-90
2021/12/17 00:03:43;;;;;;;0.40;0.40;;;8.50;98.90;;;;;;5052852;28;20178;-92
2021/12/17 00:06:29;;;;;;;0.50;0.50;;;8.60;98.80;;;;;;5070467;28;20229;-90
2021/12/17 00:08:56;;;;;;;0.50;0.50;;;8.50;99.00;;;;;;5074340;28;20178;-92
2021/12/17 00:11:24;;;;;;;0.60;0.60;;;8.50;99.10;;;;;;5073902;28;20207;-92
2021/12/17 00:13:53;;;;;;;0.50;0.50;;;8.40;99.00;;;;;;5055065;28;20260;-89
2021/12/17 00:16:23;;;;;;;0.40;0.40;;;8.50;99.00;;;;;;5054166;28;20241;-95
2021/12/17 00:19:59;;;;;;;0.40;0.40;;;8.40;99.10;;;;;;5071564;28;20170;-96
2021/12/17 00:48:55;;;;;;;0.43;0.43;;;8.60;98.40;;;;;;5075903;28;20246;-87
2021/12/17 00:54:21;;;;;;;0.33;0.33;;;8.60;98.20;;;;;;5075634;28;20189;-88
2021/12/17 00:56:54;;;;;;;0.60;0.60;;;8.50;98.30;;;;;;5073563;28;20253;-88
2021/12/17 00:59:20;;;;;;;0.73;0.73;;;8.50;98.40;;;;;;5073571;28;20619;-88
2021/12/17 01:01:47;;;;;;;0.50;0.50;;;8.40;98.50;;;;;;5073577;28;20188;-87
2021/12/17 01:04:14;;;;;;;0.30;0.30;;;8.50;98.10;;;;;;5073663;28;20621;-86
2021/12/17 01:06:40;;;;;;;0.40;0.40;;;8.60;98.00;;;;;;5056951;28;20225;-89
2021/12/17 01:09:09;;;;;;;0.40;0.40;;;8.70;97.70;;;;;;5056631;28;20178;-92
2021/12/17 01:11:36;;;;;;;0.33;0.33;;;8.80;97.50;;;;;;5075240;28;20210;-91
2021/12/17 01:14:03;;;;;;;0.47;0.47;;;8.80;97.40;;;;;;5073970;28;20175;-89
2021/12/17 01:16:31;;;;;;;0.40;0.40;;;8.80;97.70;;;;;;5056130;28;20182;-91
2021/12/17 01:22:14;;;;;;;0.47;0.47;;;8.50;98.00;;;;;;5075048;28;20173;-92
2021/12/17 01:24:56;;;;;;;1.13;0.50;;;8.40;98.20;;;;;;5060168;28;20613;-86
2021/12/17 01:35:39;;;;;;;0.50;0.50;;;8.00;98.90;;;;;;5075566;28;20173;-89
2021/12/17 01:41:17;;;;;;;0.50;0.50;;;7.80;99.20;;;;;;5074011;28;20174;-92
2021/12/17 01:43:48;;;;;;;0.53;0.47;;;7.80;99.40;;;;;;5073465;28;20229;-88
2021/12/17 01:46:22;;;;;;;0.60;0.60;;;7.90;99.30;;;;;;5073577;28;20230;-86
2021/12/17 01:59:50;;;;;;;0.70;0.70;;;7.60;99.40;;;;;;5073546;28;20176;-93
2021/12/17 02:02:16;;;;;;;1.43;0.70;;;7.60;99.40;;;;;;5073318;28;20554;-94
2021/12/17 02:04:43;;;;;;;0.60;0.60;;;7.50;99.40;;;;;;5073401;28;20178;-91
2021/12/17 02:07:09;;;;;;;0.70;0.70;;;7.50;99.40;;;;;;5073305;28;20254;-95
2021/12/17 02:20:47;;;;;;;0.47;0.47;;;7.50;99.20;;;;;;5073121;28;20244;-90
2021/12/17 02:29:00;;;;;;;0.50;0.50;;;7.60;98.90;;;;;;5073078;28;20185;-87
2021/12/17 02:31:31;;;;;;;0.60;0.60;;;7.50;99.00;;;;;;5072652;28;20200;-88
2021/12/17 02:34:40;;;;;;;0.70;0.70;;;7.50;98.50;;;;;;5072814;28;20527;-90
2021/12/17 02:37:09;;;;;;;0.50;0.50;;;7.70;97.80;;;;;;5072014;28;20181;-88
2021/12/17 02:48:15;;;;;;;0.63;0.63;;;7.60;98.40;;;;;;5075003;28;20231;-88
2021/12/17 02:50:47;;;;;;;0.83;0.80;;;7.70;97.60;;;;;;5072619;28;20203;-89
2021/12/17 02:53:15;;;;;;;0.70;0.70;;;7.70;98.00;;;;;;5072370;28;20174;-87
2021/12/17 02:55:48;;;;;;;0.70;0.70;;;7.50;98.40;;;;;;5072637;28;20166;-90
2021/12/17 02:58:14;;;;;;;0.70;0.70;;;7.40;98.70;;;;;;5053987;28;20589;-86
2021/12/17 03:00:42;;;;;;;0.73;0.73;;;7.40;98.40;;;;;;5055149;28;20177;-95
2021/12/17 03:03:10;;;;;;;0.63;0.63;;;7.40;98.50;;;;;;5074229;28;20234;-87
2021/12/17 03:05:39;;;;;;;0.70;0.70;;;7.40;98.30;;;;;;5063763;28;20177;-94
2021/12/17 03:08:07;;;;;;;0.90;0.90;;;7.30;98.60;;;;;;5073846;28;20253;-92
2021/12/17 03:10:33;;;;;;;0.70;0.70;;;7.30;98.50;;;;;;5091978;28;20253;-90
2021/12/17 03:13:02;;;;;;;0.67;0.67;;;7.30;98.50;;;;;;5094006;28;20211;-94
2021/12/17 03:23:40;;;;;;;0.70;0.50;;;7.00;98.90;;;;;;5095909;28;20180;-87
2021/12/17 03:26:14;;;;;;;0.70;0.70;;;7.00;98.40;;;;;;5070980;28;20564;-92
2021/12/17 03:28:44;;;;;;;0.70;0.70;;;7.00;98.50;;;;;;5084451;28;20174;-93
2021/12/17 03:31:11;;;;;;;0.63;0.63;;;7.00;97.80;;;;;;5081803;28;20286;-95
2021/12/17 03:33:41;;;;;;;1.77;0.67;;;7.10;97.70;;;;;;5077031;28;20176;-93
2021/12/17 03:36:15;;;;;;;0.97;0.90;;;7.20;97.80;;;;;;5084072;28;20167;-95
2021/12/17 03:38:43;;;;;;;0.70;0.70;;;7.20;97.20;;;;;;5072803;28;20164;-95
2021/12/17 03:43:38;;;;;;;0.70;0.70;;;7.50;96.40;;;;;;5072006;28;20216;-92
2021/12/17 03:46:05;;;;;;;1.60;0.80;;;7.50;96.70;;;;;;5072235;28;20182;-93
2021/12/17 03:48:33;;;;;;;0.60;0.60;;;7.30;96.80;;;;;;5072249;28;20177;-95
2021/12/17 03:50:58;;;;;;;0.73;0.73;;;7.30;96.90;;;;;;5053936;28;20213;-93
2021/12/17 03:53:24;;;;;;;0.60;0.60;;;7.50;96.30;;;;;;5081648;28;20206;-95
2021/12/17 03:55:50;;;;;;;0.70;0.70;;;7.50;96.40;;;;;;5076215;28;20169;-93
2021/12/17 03:58:17;;;;;;;0.60;0.60;;;7.50;96.30;;;;;;5079637;28;20169;-92
2021/12/17 04:00:45;;;;;;;0.40;0.40;;;7.60;96.30;;;;;;5077588;28;20219;-87
2021/12/17 04:03:12;;;;;;;0.70;0.70;;;7.50;96.40;;;;;;5070777;28;20523;-88
2021/12/17 04:05:38;;;;;;;0.70;0.70;;;7.40;96.50;;;;;;5071067;28;20540;-87
2021/12/17 04:08:04;;;;;;;0.70;0.70;;;7.50;96.50;;;;;;5070483;28;20561;-87
2021/12/17 04:10:39;;;;;;;0.60;0.60;;;7.40;96.70;;;;;;5070521;28;20541;-87
2021/12/17 04:13:24;;;;;;;0.73;0.73;;;7.30;96.60;;;;;;5070678;28;20162;-88
2021/12/17 04:15:58;;;;;;;0.50;0.50;;;7.30;96.50;;;;;;5070364;28;20182;-87
2021/12/17 04:18:26;;;;;;;0.57;0.57;;;7.30;96.50;;;;;;5075976;28;20195;-87
2021/12/17 04:20:52;;;;;;;0.50;0.50;;;7.20;96.70;;;;;;5061940;28;20196;-88
2021/12/17 04:23:20;;;;;;;1.33;0.70;;;7.10;96.60;;;;;;5056856;28;20266;-92
2021/12/17 04:25:48;;;;;;;2.67;1.20;;;7.10;96.70;;;;;;5053369;28;20271;-89
2021/12/17 04:28:14;;;;;;;1.57;1.47;;;7.20;96.30;;;;;;5053365;28;20264;-87
2021/12/17 04:30:40;;;;;;;1.03;1.03;;;7.30;96.40;;;;;;5071695;28;20181;-94
2021/12/17 04:33:06;;;;;;;3.33;2.07;;;7.30;96.50;;;;;;5053669;28;20175;-90
2021/12/17 04:35:33;;;;;;;2.17;1.93;;;7.40;96.10;;;;;;5073052;28;20630;-95
2021/12/17 04:38:00;;;;;;;3.27;2.40;;;7.30;96.40;;;;;;5083986;23;20279;-94
2021/12/17 04:40:27;;;;;;;3.00;2.07;;;7.10;96.80;;;;;;5089626;28;20171;-94
2021/12/17 04:45:25;;;;;;;1.33;1.20;;;7.00;97.00;;;;;;5092095;28;20167;-94
2021/12/17 04:58:50;;;;;;;1.40;1.33;;;6.50;98.00;;;;;;5094728;28;20582;-94
2021/12/17 05:01:16;;;;;;;2.87;1.37;;;6.50;98.30;;;;;;5109248;28;20161;-95
2021/12/17 05:03:42;;;;;;;2.37;1.40;;;6.40;98.20;;;;;;5108575;28;20205;-86
2021/12/17 05:06:08;;;;;;;4.37;1.53;;;6.40;98.20;;;;;;5092849;28;20180;-95
2021/12/17 05:08:35;;;;;;;2.03;1.83;;;6.30;98.10;;;;;;5076883;28;20186;-96
2021/12/17 05:19:10;;;;;;;3.20;2.43;;;6.20;97.50;;;;;;5097379;28;20292;-96
2021/12/17 05:21:37;;;;;;;11.27;4.30;;;6.30;97.80;;;;;;5096122;28;20161;-95
2021/12/17 05:24:03;;;;;;;3.73;2.60;;;6.20;97.90;;;;;;5095976;28;20180;-95
2021/12/17 05:26:29;;;;;;;6.30;3.07;;;6.10;98.60;;;;;;5096667;28;20169;-95
2021/12/17 05:28:55;;;;;;;7.10;2.93;;;6.00;98.30;;;;;;5098065;28;20270;-93
2021/12/17 05:31:22;;;;;;;4.03;3.00;;;6.00;98.50;;;;;;5097639;28;20205;-95
2021/12/17 05:33:51;;;;;;;5.37;3.03;;;5.90;98.40;;;;;;5112705;28;20176;-94
2021/12/17 05:36:18;;;;;;;7.90;3.10;;;5.90;98.30;;;;;;5107632;28;20171;-92
2021/12/17 05:38:44;;;;;;;5.60;3.03;;;5.90;98.50;;;;;;5076174;28;20198;-92
2021/12/17 05:41:10;;;;;;;5.23;2.57;;;5.80;98.70;;;;;;5063831;28;20274;-88
2021/12/17 05:43:37;;;;;;;3.70;2.93;;;5.80;98.50;;;;;;5056547;28;20256;-86
2021/12/17 05:46:13;;;;;;;4.50;3.13;;;5.70;98.70;;;;;;5072095;28;20634;-86
2021/12/17 05:48:40;;;;;;;2.13;1.73;;;5.70;99.10;;;;;;5076453;28;20590;-91
2021/12/17 05:51:10;;;;;;;9.57;2.97;;;5.80;98.60;;;;;;5080539;28;20221;-87
2021/12/17 05:53:36;;;;;;;5.57;3.80;;;5.80;99.00;;;;;;5080310;28;20187;-92
2021/12/17 05:56:02;;;;;;;4.37;3.10;;;5.70;99.20;;;;;;5082786;28;20190;-93
2021/12/17 05:58:29;;;;;;;4.10;2.63;;;5.70;99.50;;;;;;5058715;28;20183;-92
2021/12/17 06:00:56;;;;;;;3.70;2.93;;;5.60;99.40;;;;;;5075556;28;20637;-91
2021/12/17 06:03:23;;;;;;;2.60;1.80;;;5.60;99.30;;;;;;5074874;28;20237;-91
2021/12/17 06:05:49;;;;;;;6.37;2.73;;;5.50;98.90;;;;;;5057079;28;20191;-90
2021/12/17 06:08:15;;;;;;;3.03;2.13;;;5.60;99.30;;;;;;5074587;28;20270;-91
2021/12/17 06:10:42;;;;;;;5.90;2.33;;;5.50;99.30;;;;;;5074161;28;20254;-93
2021/12/17 06:13:07;;;;;;;3.30;2.67;;;5.50;99.60;;;;;;5072068;28;20189;-89
2021/12/17 06:15:33;;;;;;;2.97;2.40;;;5.40;99.90;;;;;;5073443;28;20527;-93
2021/12/17 06:17:59;;;;;;;4.17;2.20;;;5.50;99.90;;;;;;5055499;28;20220;-93
2021/12/17 06:20:25;;;;;;;3.83;2.77;;;5.50;99.90;;;;;;5073971;28;20168;-93
2021/12/17 06:22:52;;;;;;;4.03;2.17;;;5.40;99.90;;;;;;5055520;28;20229;-91
2021/12/17 06:25:19;;;;;;;3.27;1.70;;;5.40;99.90;;;;;;5074235;28;20203;-92
2021/12/17 06:27:45;;;;;;;1.70;1.60;;;5.40;99.00;;;;;;5078554;28;20202;-95
2021/12/17 06:30:14;;;;;;;2.20;1.97;;;5.40;99.10;;;;;;5060104;28;20180;-91
2021/12/17 06:32:41;;;;;;;1.30;1.30;;;5.40;99.30;;;;;;5055456;28;20242;-92
2021/12/17 06:35:08;;;;;;;1.83;1.63;;;5.40;99.30;;;;;;5055302;28;20173;-91
2021/12/17 06:37:35;;;;;;;4.03;1.80;;;5.40;99.40;;;;;;5058221;28;20687;-87
2021/12/17 06:40:02;;;;;;;2.70;1.33;;;5.40;99.40;;;;;;5078907;28;20182;-92
2021/12/17 06:42:28;;;;;;;1.73;1.63;;;5.40;99.70;;;;;;5065244;28;20198;-88
2021/12/17 06:44:59;;;;;;;1.90;1.80;;;5.40;99.70;;;;;;5082644;28;20268;-92
2021/12/17 06:47:32;;;;;;;1.77;1.67;;;5.40;99.30;;;;;;5087455;28;20196;-93
2021/12/17 07:01:15;;;;;;;3.03;1.60;;;5.90;97.60;;;;;;5099236;28;20677;-88
2021/12/17 07:09:39;;;;;;;2.53;2.17;;;6.10;97.50;;;;;;5116085;28;20170;-90
2021/12/17 07:17:34;;;;;;;2.57;2.13;;;5.90;98.30;;;;;;5114991;28;20177;-87
2021/12/17 07:23:03;;;;;;;2.93;1.70;;;6.20;96.90;;;;;;5109976;28;20197;-87
2021/12/17 07:29:58;;;;;;;3.90;2.30;;;6.50;96.20;;;;;;5108553;28;20181;-87
2021/12/17 07:33:47;;;;;;;2.30;1.40;;;6.80;95.70;;;;;;5093376;28;20181;-90
2021/12/17 07:36:14;;;;;;;1.63;1.50;;;6.80;95.80;;;;;;5092607;28;20173;-88
2021/12/17 07:38:48;;;;;;;4.13;1.40;;;7.00;95.30;;;;;;5075468;28;20232;-90
2021/12/17 07:41:14;;;;;;;1.67;1.30;;;7.00;95.30;;;;;;5108618;28;20663;-87
2021/12/17 07:43:51;;;;;;;1.57;1.47;;;7.00;95.40;;;;;;5107576;28;20176;-90
2021/12/17 07:46:18;;;;;;;3.17;1.70;;;7.10;95.00;;;;;;5098286;28;20163;-88
2021/12/17 07:48:44;;;;;;;7.03;2.10;;;7.20;94.80;;;;;;5094764;28;20624;-87
2021/12/17 07:51:14;;;;;;;3.93;2.33;;;7.40;94.90;;;;;;5074358;28;20214;-92
2021/12/17 07:53:40;;;;;;;3.40;2.30;;;7.50;94.70;;;;;;5076720;28;20826;-89
2021/12/17 07:56:09;;;;;;;7.10;2.40;;;7.50;94.50;;;;;;5076005;28;20258;-91
2021/12/17 07:58:35;;;;;;;3.30;2.13;;;7.60;94.70;;;;;;5077991;28;20263;-91
2021/12/17 08:01:02;;;;;;;10.07;1.87;;;7.60;95.30;;;;;;5095308;28;20308;-89
2021/12/17 08:03:29;;;;;;;2.30;1.40;;;7.70;94.90;;;;;;5095249;28;20177;-90
2021/12/17 08:05:55;;;;;;;5.90;1.83;;;7.70;94.10;;;;;;5093961;28;20529;-88
2021/12/17 08:08:21;;;;;;;2.20;1.70;;;7.90;94.00;;;;;;5094665;28;20184;-88
2021/12/17 08:10:47;;;;;;;3.73;1.50;;;7.80;93.90;;;;;;5073748;28;20180;-87
2021/12/17 08:13:20;;;;;;;1.70;1.60;;;7.90;93.80;;;;;;5091296;28;20178;-93
2021/12/17 08:16:03;;;;;;;1.47;1.30;;;7.90;93.70;;;;;;5091454;28;20160;-90
2021/12/17 08:18:49;;;;;;;2.20;1.33;;;7.90;93.60;;;;;;5093602;28;20168;-92
2021/12/17 08:31:28;;;;;;;5.07;2.33;;;8.20;93.70;;;;;;5091990;28;20303;-88
2021/12/17 08:33:55;;;;;;;7.17;2.73;;;8.20;93.60;;;;;;5080859;28;20195;-92
2021/12/17 08:36:22;;;;;;;2.53;2.07;;;8.30;93.80;;;;;;5107247;28;20164;-92
2021/12/17 08:38:49;;;;;;;5.97;2.30;;;8.40;93.80;;;;;;5096329;28;20180;-94
2021/12/17 08:41:17;;;;;;;3.07;2.27;;;8.40;94.00;;;;;;5092284;28;20644;-90
2021/12/17 08:43:43;;;;;;;8.60;2.83;;;8.40;94.00;;;;;;5091537;28;20213;-89
2021/12/17 08:46:10;;;;;;;9.10;2.77;;;8.50;94.00;;;;;;5091961;28;20177;-91
2021/12/17 08:48:36;;;;;;;5.60;2.50;;;8.60;94.00;;;;;;5090146;28;20250;-89
2021/12/17 08:51:03;;;;;;;9.70;2.10;;;8.60;94.00;;;;;;5092031;28;20287;-93
2021/12/17 08:53:29;;;;;;;5.97;2.40;;;8.60;94.20;;;;;;5074280;28;20179;-87
2021/12/17 08:55:55;;;;;;;4.67;2.40;;;8.60;94.50;;;;;;5093167;28;20191;-91
2021/12/17 08:58:21;;;;;;;9.07;2.10;;;8.60;94.30;;;;;;5096665;28;20254;-88
2021/12/17 09:00:47;;;;;;;8.27;2.37;;;8.60;94.40;;;;;;5097256;28;20173;-90
2021/12/17 09:03:13;;;;;;;6.50;2.50;;;8.70;94.40;;;;;;5077437;28;20189;-89
2021/12/17 09:05:42;;;;;;;7.43;2.67;;;8.70;94.50;;;;;;5096555;28;20174;-89
2021/12/17 09:08:10;;;;;;;14.03;2.80;;;8.80;94.50;;;;;;5081337;28;20186;-93
2021/12/17 09:10:39;;;;;;;3.73;2.50;;;8.90;94.50;;;;;;5082640;28;20177;-94
2021/12/17 09:13:07;;;;;;;15.10;3.70;;;8.90;94.50;;;;;;5102647;28;20185;-95
2021/12/17 09:15:33;;;;;;;17.17;5.83;;;9.00;94.60;;;;;;5104102;28;20648;-90
2021/12/17 09:17:59;;;;;;;21.10;6.90;;;9.00;95.60;;;;;;5078696;28;20177;-88
2021/12/17 09:20:25;;;;;;;12.83;6.80;;;8.90;95.90;;;;;;5095089;28;20241;-89
2021/12/17 09:22:52;;;;;;;10.80;6.90;;;8.70;96.20;;;;;;5094545;28;20173;-90
2021/12/17 09:25:20;;;;;;;12.43;6.63;;;8.60;96.50;;;;;;5076228;28;20254;-89
2021/12/17 09:27:46;;;;;;;11.27;7.30;;;8.60;96.70;;;;;;5095131;28;20621;-86
2021/12/17 09:30:15;;;;;;;9.60;6.20;;;8.40;97.00;;;;;;5094735;28;20636;-89
2021/12/17 09:32:42;;;;;;;14.60;7.33;;;8.40;97.30;;;;;;5094493;28;20212;-88
2021/12/17 09:35:10;;;;;;;13.63;6.90;;;8.20;97.30;;;;;;5093368;28;20177;-89
2021/12/17 09:37:36;;;;;;;12.97;6.43;;;8.10;97.50;;;;;;5075550;28;20224;-86
2021/12/17 09:40:06;;;;;;;11.60;6.50;;;8.10;97.50;;;;;;5094792;28;20174;-88
2021/12/17 09:42:33;;;;;;;10.80;6.40;;;8.10;97.70;;;;;;5082456;28;20181;-89
2021/12/17 09:44:59;;;;;;;9.93;6.47;;;8.00;97.90;;;;;;5080858;28;20179;-87
2021/12/17 09:47:25;;;;;;;10.07;6.10;;;7.90;98.00;;;;;;5096583;28;20223;-88
2021/12/17 09:49:56;;;;;;;13.93;6.10;;;7.80;98.10;;;;;;5095310;28;20653;-93
2021/12/17 09:52:23;;;;;;;15.63;6.60;;;7.60;98.60;;;;;;5094633;28;20206;-91
2021/12/17 09:54:53;;;;;;;12.17;5.97;;;7.50;98.70;;;;;;5075817;28;20172;-92
2021/12/17 09:57:20;;;;;;;15.57;6.10;;;7.40;98.90;;;;;;5093985;28;20179;-93
2021/12/17 09:59:49;;;;;;;12.37;5.60;;;7.40;98.80;;;;;;5093869;28;20529;-91
2021/12/17 10:02:15;;;;;;;8.50;4.60;;;7.30;98.70;;;;;;5075778;28;20181;-93
2021/12/17 10:04:42;;;;;;;9.83;5.30;;;7.10;98.50;;;;;;5076122;28;20190;-90
2021/12/17 10:07:21;;;;;;;7.87;5.33;;;7.00;98.70;;;;;;5093641;28;20257;-95
2021/12/17 10:09:54;;;;;;;10.57;5.47;;;6.90;98.90;;;;;;5094083;28;20837;-89
2021/12/17 10:12:25;;;;;;;13.40;4.93;;;6.80;99.10;;;;;;5093961;28;20213;-91
2021/12/17 10:15:08;;;;;;;10.03;5.20;;;6.80;99.20;;;;;;5094234;28;20170;-92
2021/12/17 10:17:36;;;;;;;12.83;5.03;;;6.70;99.20;;;;;;5077118;28;20240;-92
2021/12/17 10:20:07;;;;;;;13.53;5.03;;;6.70;99.20;;;;;;5109526;28;20227;-89
2021/12/17 10:22:33;;;;;;;14.57;5.57;;;6.80;99.00;;;;;;5097481;28;20183;-94
2021/12/17 10:25:03;;;;;;;13.77;4.83;;;6.80;99.40;;;;;;5083447;28;20182;-93
2021/12/17 10:27:31;;;;;;;12.07;5.77;;;6.90;99.10;;;;;;5100626;28;20164;-93
2021/12/17 10:29:59;;;;;;;12.77;4.33;;;6.90;98.90;;;;;;5098350;28;20697;-94
2021/12/17 10:32:28;;;;;;;13.73;5.07;;;7.10;97.90;;;;;;5076219;28;20215;-92
2021/12/17 10:35:11;;;;;;;9.37;4.70;;;7.20;98.40;;;;;;5094348;28;20531;-89
2021/12/17 10:38:04;;;;;;;18.00;5.60;;;7.30;98.60;;;;;;5088969;28;20315;-88
2021/12/17 10:40:40;;;;;;;12.07;5.33;;;7.40;98.70;;;;;;5068411;28;20183;-90
2021/12/17 10:43:18;;;;;;;17.93;5.50;;;7.50;99.10;;;;;;5076253;28;20171;-88
2021/12/17 10:45:59;;;;;;;23.83;6.03;;;7.60;99.60;;;;;;5075161;28;20223;-87
2021/12/17 10:48:36;;;;;;;15.23;6.30;;;7.70;99.80;;;;;;5060714;28;20708;-89
2021/12/17 10:51:13;;;;;;;21.63;6.70;;;7.80;99.20;;;;;;5079191;28;20859;-94
2021/12/17 10:53:53;;;;;;;18.60;6.70;;;8.00;99.40;;;;;;5101999;28;20153;-94
2021/12/17 10:56:24;;;;;;;29.60;6.50;;;8.10;99.20;;;;;;5077954;28;20166;-92
2021/12/17 10:58:57;;;;;;;21.20;6.47;;;8.10;98.90;;;;;;5094097;28;20166;-89
2021/12/17 11:01:54;;;;;;;27.97;7.07;;;8.20;99.00;;;;;;5103716;28;20157;-94
2021/12/17 11:04:34;;;;;;;11.80;6.10;;;8.20;98.90;;;;;;5067679;28;20228;-90
2021/12/17 11:07:05;;;;;;;20.20;6.30;;;8.30;98.80;;;;;;5076364;28;20260;-88
2021/12/17 11:09:40;;;;;;;16.17;6.63;;;8.40;98.90;;;;;;5098399;28;20177;-93
2021/12/17 11:12:27;;;;;;;18.60;6.80;;;8.40;98.80;;;;;;5113847;28;20203;-94
2021/12/17 11:14:53;;;;;;;15.50;6.47;;;8.50;99.00;;;;;;5115299;28;20213;-92
2021/12/17 11:17:23;;;;;;;12.83;5.93;;;8.50;98.80;;;;;;5114515;28;20244;-88
2021/12/17 11:19:53;;;;;;;14.80;5.13;;;8.60;98.50;;;;;;5114503;28;20196;-91
2021/12/17 11:22:19;;;;;;;15.57;5.70;;;8.60;98.50;;;;;;5110606;28;20163;-87
2021/12/17 11:24:45;;;;;;;12.53;5.47;;;8.70;98.60;;;;;;5109180;28;20216;-88
2021/12/17 11:27:12;;;;;;;15.20;5.87;;;8.80;98.30;;;;;;5112924;28;20707;-87
2021/12/17 11:29:40;;;;;;;13.97;4.37;;;8.90;97.80;;;;;;5100929;28;20174;-88
2021/12/17 11:32:06;;;;;;;18.43;5.77;;;9.10;97.10;;;;;;5093675;28;20213;-91
2021/12/17 11:34:34;;;;;;;16.20;5.60;;;9.20;96.80;;;;;;5074162;28;20177;-94
2021/12/17 11:37:03;;;;;;;12.13;4.63;;;9.30;96.50;;;;;;5073895;28;20233;-87
2021/12/17 11:39:32;;;;;;;15.23;5.40;;;9.40;95.80;;;;;;5092007;28;20227;-88
2021/12/17 11:42:29;;;;;;;16.83;5.20;;;9.50;96.40;;;;;;5074691;28;20657;-89
2021/12/17 11:47:49;;;;;;;11.70;5.20;;;9.80;97.30;;;;;;5292336;22;20921;-87
2021/12/17 11:50:17;;;;;;;12.37;4.40;;;9.80;96.70;;;;;;5065488;28;20318;-94
2021/12/17 11:52:50;;;;;;;11.80;4.23;;;9.90;96.20;;;;;;5077122;28;20437;-86
2021/12/17 11:55:35;;;;;;;9.13;3.70;;;10.00;95.20;;;;;;5103249;28;20171;-88
2021/12/17 11:58:10;;;;;;;8.90;3.80;;;10.10;95.10;;;;;;5077917;28;20180;-87
2021/12/17 12:00:56;;;;;;;5.30;3.23;;;10.20;94.90;;;;;;5075601;28;20232;-88
2021/12/17 12:03:24;;;;;;;3.17;2.00;;;10.30;94.60;;;;;;5081199;28;20652;-90
2021/12/17 12:05:53;;;;;;;1.70;1.60;;;10.40;92.20;;;;;;5107207;28;20167;-89
2021/12/17 12:08:26;;;;;;;1.30;1.27;;;10.70;91.00;;;;;;5113297;28;20156;-92
2021/12/17 12:11:09;;;;;;;2.37;1.40;;;11.00;90.40;;;;;;5106655;28;20218;-92
2021/12/17 12:13:48;;;;;;;1.63;1.00;;;11.10;90.30;;;;;;5101124;28;20672;-92
2021/12/17 12:16:22;;;;;;;6.27;1.53;;;11.20;89.90;;;;;;5079926;28;20535;-91
2021/12/17 12:18:53;;;;;;;1.70;1.60;;;11.40;90.00;;;;;;5076517;28;20185;-92
2021/12/17 12:21:21;;;;;;;5.07;1.43;;;11.30;90.00;;;;;;5095052;28;20242;-92
2021/12/17 12:23:57;;;;;;;0.93;0.93;;;11.30;91.30;;;;;;5075580;28;20179;-95
2021/12/17 12:26:26;;;;;;;1.00;1.00;;;11.40;90.90;;;;;;5075944;28;20162;-94
2021/12/17 12:28:58;;;;;;;1.43;1.30;;;11.50;90.40;;;;;;5078184;28;20235;-92
2021/12/17 12:31:35;;;;;;;2.00;1.27;;;11.60;90.40;;;;;;5099071;28;20203;-93
2021/12/17 12:34:22;;;;;;;1.10;1.03;;;11.70;90.60;;;;;;5081724;28;20177;-94
2021/12/17 12:37:04;;;;;;;0.70;0.70;;;11.70;90.50;;;;;;5098852;28;20173;-94
2021/12/17 12:40:03;;;;;;;2.30;1.07;;;11.70;90.80;;;;;;5080237;28;20577;-92
2021/12/17 12:42:32;;;;;;;2.13;0.67;;;11.70;90.90;;;;;;5097405;28;20604;-89
2021/12/17 12:44:57;;;;;;;3.67;0.90;;;11.70;90.50;;;;;;5097747;28;20199;-88
2021/12/17 12:47:26;;;;;;;1.80;1.10;;;11.70;90.90;;;;;;5078096;28;20217;-91
2021/12/17 12:49:56;;;;;;;3.17;1.33;;;11.60;91.20;;;;;;5095942;28;20280;-93
2021/12/17 12:52:27;;;;;;;1.07;0.90;;;11.60;91.00;;;;;;5078090;28;20210;-92
2021/12/17 12:54:56;;;;;;;1.47;1.00;;;11.60;90.60;;;;;;5077317;28;20240;-88
2021/12/17 12:57:42;;;;;;;5.40;1.30;;;11.60;90.50;;;;;;5095072;28;20271;-88
2021/12/17 13:00:14;;;;;;;1.83;1.20;;;11.60;90.40;;;;;;5076739;28;20687;-87
2021/12/17 13:02:41;;;;;;;1.30;1.20;;;11.60;90.50;;;;;;5095880;28;20214;-88
2021/12/17 13:05:08;;;;;;;1.93;1.00;;;11.50;90.60;;;;;;5076902;28;20185;-89
2021/12/17 13:07:40;;;;;;;1.30;1.20;;;11.40;90.30;;;;;;5094998;28;20167;-89
2021/12/17 13:10:34;;;;;;;2.07;0.90;;;11.40;90.40;;;;;;5076404;28;20190;-88
2021/12/17 13:13:28;;;;;;;1.17;1.00;;;11.40;90.10;;;;;;5076935;28;20309;-92
2021/12/17 13:24:15;;;;;;;1.13;0.90;;;11.30;90.10;;;;;;5096494;28;20243;-92
2021/12/17 13:26:43;;;;;;;3.53;0.97;;;11.30;90.00;;;;;;5098853;28;20164;-93
2021/12/17 13:29:20;;;;;;;1.83;1.00;;;11.20;89.80;;;;;;5080959;28;20173;-91
2021/12/17 13:31:55;;;;;;;0.83;0.83;;;11.30;89.60;;;;;;5097403;28;20247;-89
2021/12/17 13:34:34;;;;;;;1.20;1.10;;;11.40;88.50;;;;;;5094872;28;20200;-88
2021/12/17 13:37:14;;;;;;;1.23;1.20;;;11.30;89.00;;;;;;5078655;28;20203;-90
2021/12/17 13:39:57;;;;;;;2.80;2.00;;;11.20;89.30;;;;;;5098992;28;20142;-91
2021/12/17 13:42:33;;;;;;;3.10;2.87;;;11.00;90.70;;;;;;5097079;28;20245;-90
2021/12/17 13:45:13;;;;;;;4.20;3.90;;;10.80;92.70;;;;;;5095545;28;20162;-87
2021/12/17 13:47:51;;;;;;;6.10;3.60;;;10.60;93.60;;;;;;5095567;28;20515;-91
2021/12/17 13:50:25;;;;;;;4.40;4.00;;;10.30;94.30;;;;;;5096503;28;20232;-88
2021/12/17 13:52:58;;;;;;;5.93;3.83;;;10.00;95.00;;;;;;5101609;28;20245;-93
2021/12/17 13:55:38;;;;;;;7.43;4.33;;;9.80;95.80;;;;;;5110195;28;20166;-89
2021/12/17 13:58:14;;;;;;;4.43;4.00;;;9.60;96.20;;;;;;5089348;28;20725;-90
2021/12/17 14:00:43;;;;;;;5.30;4.60;;;9.40;96.50;;;;;;5079771;28;20264;-90
2021/12/17 14:03:13;;;;;;;5.87;4.20;;;9.30;96.90;;;;;;5096492;28;20522;-87
2021/12/17 14:05:41;;;;;;;9.83;4.53;;;9.30;97.20;;;;;;5094870;28;20663;-90
2021/12/17 14:08:17;;;;;;;7.50;4.53;;;9.20;97.30;;;;;;5076708;28;20738;-90
2021/12/17 14:10:44;;;;;;;5.40;4.90;;;9.10;97.50;;;;;;5069744;28;20185;-86
2021/12/17 14:13:22;;;;;;;8.33;5.77;;;8.80;97.90;;;;;;5103400;28;20206;-86
2021/12/17 14:15:51;;;;;;;5.77;5.27;;;8.70;98.30;;;;;;5078203;28;20181;-94
2021/12/17 14:18:22;;;;;;;6.87;5.63;;;8.60;98.60;;;;;;5094674;28;20180;-93
2021/12/17 14:20:52;;;;;;;6.50;5.30;;;8.50;99.00;;;;;;5077042;28;20172;-89
2021/12/17 14:23:27;;;;;;;5.50;5.00;;;8.50;98.90;;;;;;5060088;28;20299;-93
2021/12/17 14:25:55;;;;;;;7.10;5.43;;;8.40;99.10;;;;;;5077429;28;20174;-93
2021/12/17 14:28:40;;;;;;;5.47;5.00;;;8.30;99.30;;;;;;5095320;28;20248;-93
2021/12/17 14:31:10;;;;;;;8.70;5.70;;;8.20;99.40;;;;;;5094941;28;20172;-92
2021/12/17 14:33:40;;;;;;;8.13;6.20;;;8.10;99.60;;;;;;5094234;28;20174;-94
2021/12/17 14:36:11;;;;;;;6.47;5.80;;;8.00;99.80;;;;;;5095279;28;20271;-93
2021/12/17 14:38:44;;;;;;;7.70;5.47;;;8.00;99.80;;;;;;5094952;28;20159;-91
2021/12/17 14:41:45;;;;;;;6.73;5.87;;;7.90;99.90;;;;;;5095184;28;20205;-94
2021/12/17 14:44:36;;;;;;;6.30;5.70;;;7.80;99.90;;;;;;5076159;28;20634;-93
2021/12/17 14:47:20;;;;;;;8.73;6.00;;;7.70;99.90;;;;;;5095155;28;20153;-90
2021/12/17 15:00:57;;;;;;;9.77;6.50;;;7.20;99.90;;;;;;5073381;28;20168;-93
2021/12/17 15:03:43;;;;;;;7.07;6.33;;;7.20;99.90;;;;;;5074784;28;20209;-89
2021/12/17 15:06:15;;;;;;;6.47;5.87;;;7.10;99.90;;;;;;5076344;28;20176;-91
2021/12/17 15:08:42;;;;;;;7.73;6.43;;;7.00;99.90;;;;;;5074702;28;20253;-93
2021/12/17 15:11:24;;;;;;;9.30;6.33;;;6.90;99.90;;;;;;5077748;28;20177;-90
2021/12/17 15:13:51;;;;;;;7.30;6.33;;;6.90;99.90;;;;;;5082836;28;20171;-92
2021/12/17 15:16:17;;;;;;;7.73;6.27;;;6.80;99.90;;;;;;5092660;28;20166;-92
2021/12/17 15:18:43;;;;;;;7.60;6.80;;;6.80;99.90;;;;;;5090458;28;20167;-91
2021/12/17 15:21:10;;;;;;;7.77;6.80;;;6.80;99.90;;;;;;5085380;28;20162;-90
2021/12/17 15:23:36;;;;;;;7.73;6.70;;;6.70;99.90;;;;;;5088400;28;20178;-91
2021/12/17 15:26:03;;;;;;;10.13;6.70;;;6.70;99.90;;;;;;5094728;28;20174;-90
2021/12/17 15:28:29;;;;;;;8.30;7.50;;;6.80;99.90;;;;;;5096992;28;20162;-88
2021/12/17 15:31:04;;;;;;;8.60;7.70;;;6.70;99.90;;;;;;5093505;28;20165;-94
2021/12/17 15:33:30;;;;;;;10.00;7.27;;;6.60;99.90;;;;;;5092946;28;20207;-92
2021/12/17 15:35:57;;;;;;;9.57;7.07;;;6.60;99.90;;;;;;5080792;28;20183;-90
2021/12/17 15:38:23;;;;;;;8.60;7.20;;;6.50;99.90;;;;;;5088309;28;20178;-90
2021/12/17 15:40:51;;;;;;;8.13;7.20;;;6.40;99.90;;;;;;5094322;28;20226;-95
2021/12/17 15:43:20;;;;;;;12.13;7.63;;;6.40;99.90;;;;;;5076148;28;20167;-91
2021/12/17 15:45:49;;;;;;;11.23;7.47;;;6.30;99.90;;;;;;5072415;28;20214;-94
2021/12/17 15:48:17;;;;;;;8.03;7.23;;;6.30;99.90;;;;;;5072135;28;20175;-93
2021/12/17 15:50:43;;;;;;;9.03;7.40;;;6.30;99.90;;;;;;5091238;28;20311;-89
2021/12/17 15:53:10;;;;;;;9.90;7.63;;;6.20;99.90;;;;;;5098605;28;20199;-87
2021/12/17 15:55:37;;;;;;;7.60;6.83;;;6.10;99.90;;;;;;5099399;28;20252;-91
2021/12/17 15:58:03;;;;;;;9.10;7.13;;;6.10;99.90;;;;;;5081811;28;20219;-87
2021/12/17 16:00:33;;;;;;;8.80;7.67;;;6.10;99.90;;;;;;5096179;28;20655;-89
2021/12/17 16:03:02;;;;;;;10.93;7.67;;;6.10;99.90;;;;;;5075251;28;20185;-91
2021/12/17 16:05:29;;;;;;;9.07;7.67;;;6.00;99.90;;;;;;5091788;28;20175;-91
2021/12/17 16:07:56;;;;;;;8.60;7.80;;;5.90;99.90;;;;;;5091595;28;20670;-93